Time;durP1;ratioP1;P1;durP2;ratioP2;P2;SDS_P1;SDS_P2;PMS_P1;PMS_P2;Temp;Humidity;BMP_temperature;BMP_pressure;BME280_temperature;BME280_humidity;BME280_pressure;Samples;Min_cycle;Max_cycle;Signal;HPM_P1;HPM_P2
2020/12/16 00:01:07;;;;;;;24.47;18.53;;;;;;;2.15;74.94;101403.42;1693901;82;21191;-88
2020/12/16 00:03:34;;;;;;;22.27;18.27;;;;;;;2.11;75.15;101406.73;1717460;82;21161;-88
2020/12/16 00:06:02;;;;;;;26.17;20.13;;;;;;;2.11;75.22;101411.14;1727446;80;21038;-86
2020/12/16 00:08:29;;;;;;;26.53;19.97;;;;;;;2.11;75.21;101413.31;1726252;80;21292;-87
2020/12/16 00:10:56;;;;;;;26.77;19.73;;;;;;;2.12;75.11;101412.83;1730662;82;21184;-86
2020/12/16 00:13:24;;;;;;;26.87;18.40;;;;;;;2.22;75.01;101413.02;1717627;82;21198;-90
2020/12/16 00:15:50;;;;;;;24.63;19.00;;;;;;;2.37;74.53;101411.94;1720531;82;21224;-88
2020/12/16 00:18:20;;;;;;;26.13;20.63;;;;;;;2.42;74.30;101413.78;1720006;82;21211;-88
2020/12/16 00:20:48;;;;;;;31.43;21.67;;;;;;;2.35;74.40;101408.58;1688410;82;21663;-89
2020/12/16 00:23:15;;;;;;;32.33;22.20;;;;;;;2.30;74.48;101412.03;1695076;82;21224;-87
2020/12/16 00:25:43;;;;;;;27.60;20.03;;;;;;;2.26;74.51;101413.17;1711340;82;21210;-88
2020/12/16 00:28:10;;;;;;;33.40;21.67;;;;;;;2.21;74.64;101410.88;1708025;82;21164;-86
2020/12/16 00:30:37;;;;;;;32.57;22.33;;;;;;;2.18;74.71;101414.19;1697177;82;21362;-87
2020/12/16 00:33:04;;;;;;;24.17;17.77;;;;;;;2.24;74.64;101407.17;1710265;82;21246;-85
2020/12/16 00:35:31;;;;;;;29.10;20.07;;;;;;;2.39;74.19;101410.03;1705314;79;21101;-87
2020/12/16 00:37:58;;;;;;;28.93;19.63;;;;;;;2.37;74.01;101411.10;1703122;83;21151;-84
2020/12/16 00:40:25;;;;;;;25.57;18.20;;;;;;;2.30;74.22;101421.23;1691202;83;21225;-85
2020/12/16 00:42:52;;;;;;;;;;;;;;;2.25;74.35;101412.82;1685878;83;21236;-86
2020/12/16 00:45:19;;;;;;;25.02;17.12;;;;;;;2.23;74.41;101410.77;1687048;83;20232;-87
2020/12/16 00:47:47;;;;;;;25.43;19.43;;;;;;;2.14;74.62;101410.45;1691450;83;21632;-87
2020/12/16 00:50:16;;;;;;;29.20;19.63;;;;;;;2.11;74.60;101413.31;1698290;83;22466;-86
2020/12/16 00:52:45;;;;;;;24.27;16.90;;;;;;;2.13;74.65;101408.78;1691434;83;21820;-88
2020/12/16 00:55:16;;;;;;;29.23;19.67;;;;;;;2.29;74.29;101405.91;1698634;83;21180;-90
2020/12/16 00:57:44;;;;;;;32.00;19.67;;;;;;;2.29;74.19;101403.27;1705034;83;21656;-88
2020/12/16 01:00:12;;;;;;;25.63;18.87;;;;;;;2.23;74.44;101406.34;1660222;84;21243;-89
2020/12/16 01:02:44;;;;;;;45.20;29.70;;;;;;;2.20;74.65;101405.72;1696887;83;21208;-89
2020/12/16 01:05:17;;;;;;;48.57;33.57;;;;;;;2.18;74.72;101398.41;1686626;82;21231;-88
2020/12/16 01:07:46;;;;;;;46.60;30.33;;;;;;;2.18;74.73;101401.04;1687117;83;21226;-88
2020/12/16 01:10:17;;;;;;;44.20;29.23;;;;;;;2.15;74.74;101395.53;1701574;83;21370;-87
2020/12/16 01:12:48;;;;;;;42.70;28.67;;;;;;;2.21;74.65;101393.78;1709286;82;21361;-87
2020/12/16 01:15:18;;;;;;;40.33;29.40;;;;;;;2.37;74.35;101394.00;1698945;82;21676;-87
2020/12/16 01:18:00;;;;;;;42.50;29.70;;;;;;;2.45;74.23;101382.44;1744899;80;23189;-87
2020/12/16 01:20:29;;;;;;;42.67;28.33;;;;;;;2.34;74.37;101385.86;1758863;81;21180;-85
2020/12/16 01:22:58;;;;;;;46.93;29.37;;;;;;;2.31;74.53;101384.75;1753388;81;21172;-86
2020/12/16 01:25:29;;;;;;;44.97;27.07;;;;;;;2.27;74.47;101385.92;1744120;81;21200;-87
2020/12/16 01:28:01;;;;;;;45.73;26.33;;;;;;;2.22;74.72;101384.09;1746802;82;21638;-87
2020/12/16 01:30:32;;;;;;;44.30;25.70;;;;;;;2.25;74.66;101383.40;1715889;82;21303;-82
2020/12/16 01:32:59;;;;;;;52.77;29.67;;;;;;;2.36;74.33;101385.27;1739060;82;21165;-85
2020/12/16 01:35:27;;;;;;;47.20;29.23;;;;;;;2.36;74.34;101384.44;1704977;82;21648;-86
2020/12/16 01:37:55;;;;;;;51.00;28.77;;;;;;;2.29;74.68;101384.02;1632492;85;21361;-86
2020/12/16 01:40:24;;;;;;;50.90;29.23;;;;;;;2.26;74.82;101379.83;1650331;85;21316;-87
2020/12/16 01:42:51;;;;;;;53.23;29.20;;;;;;;2.25;74.83;101374.19;1651631;85;21240;-88
2020/12/16 01:45:22;;;;;;;52.47;29.63;;;;;;;2.23;74.85;101372.63;1646485;85;21350;-87
2020/12/16 01:47:51;;;;;;;54.73;30.97;;;;;;;2.20;75.03;101368.89;1659509;84;21685;-87
2020/12/16 01:50:23;;;;;;;55.93;30.20;;;;;;;2.25;74.95;101369.41;1654874;85;21207;-89
2020/12/16 01:52:52;;;;;;;56.77;31.13;;;;;;;2.39;74.71;101363.16;1665008;85;21310;-85
2020/12/16 01:55:21;;;;;;;56.10;31.77;;;;;;;2.43;74.69;101358.03;1661358;85;21219;-86
2020/12/16 01:57:50;;;;;;;55.20;29.77;;;;;;;2.43;74.78;101364.61;1654017;85;21776;-86
2020/12/16 02:00:20;;;;;;;64.07;35.07;;;;;;;2.38;74.65;101357.06;1634645;85;21216;-86
2020/12/16 02:02:53;;;;;;;64.47;35.47;;;;;;;2.27;74.76;101366.20;1625832;85;21212;-85
2020/12/16 02:05:29;;;;;;;68.57;37.63;;;;;;;2.19;75.14;101356.70;1813056;77;22964;-85
2020/12/16 02:07:58;;;;;;;64.60;36.73;;;;;;;2.18;75.23;101358.95;1751980;80;21164;-84
2020/12/16 02:10:26;;;;;;;71.17;38.20;;;;;;;2.29;75.12;101353.28;1748294;80;21186;-85
2020/12/16 02:12:53;;;;;;;82.83;42.60;;;;;;;2.30;75.06;101348.89;1744601;80;21321;-85
2020/12/16 02:15:20;;;;;;;71.33;38.40;;;;;;;2.22;75.40;101355.98;1762760;80;21387;-86
2020/12/16 02:17:48;;;;;;;65.53;36.53;;;;;;;2.19;75.56;101356.70;1751452;78;21166;-86
2020/12/16 02:20:15;;;;;;;75.20;40.70;;;;;;;2.13;75.67;101358.81;1758256;78;21112;-85
2020/12/16 02:22:49;;;;;;;76.80;40.33;;;;;;;2.04;75.79;101346.30;1762933;80;21696;-85
2020/12/16 02:25:17;;;;;;;77.97;40.13;;;;;;;2.06;75.90;101350.15;1779011;80;21192;-87
2020/12/16 02:27:46;;;;;;;69.80;39.20;;;;;;;2.18;75.76;101353.20;1770462;80;21160;-85
2020/12/16 02:30:15;;;;;;;71.20;38.67;;;;;;;2.23;75.73;101355.53;1758379;80;21147;-86
2020/12/16 02:33:01;;;;;;;80.07;42.57;;;;;;;2.16;75.82;101352.48;1759507;80;21176;-86
2020/12/16 02:35:30;;;;;;;85.70;43.10;;;;;;;2.03;76.13;101346.41;1730471;81;21216;-86
2020/12/16 02:37:59;;;;;;;74.13;37.50;;;;;;;1.93;76.47;101353.62;1698059;83;21778;-84
2020/12/16 02:40:26;;;;;;;84.23;39.77;;;;;;;1.98;76.54;101344.12;1716771;82;21387;-85
2020/12/16 02:42:53;;;;;;;83.70;41.07;;;;;;;2.08;76.32;101345.14;1688171;83;21498;-89
2020/12/16 02:45:21;;;;;;;73.83;38.97;;;;;;;2.07;76.38;101346.55;1694717;83;21423;-85
2020/12/16 02:47:50;;;;;;;84.73;41.27;;;;;;;1.95;76.75;101339.89;1685682;83;21656;-88
2020/12/16 02:50:19;;;;;;;77.93;38.90;;;;;;;1.86;77.10;101348.91;1719177;82;21155;-93
2020/12/16 02:52:47;;;;;;;76.30;38.37;;;;;;;1.78;77.38;101351.23;1717804;82;21351;-84
2020/12/16 02:55:16;;;;;;;83.10;40.37;;;;;;;1.79;77.52;101347.64;1723153;82;21737;-86
2020/12/16 02:58:00;;;;;;;71.63;38.43;;;;;;;1.63;77.28;101306.66;1718584;82;21203;-82
2020/12/16 03:00:28;;;;;;;80.43;40.87;;;;;;;1.87;77.37;101340.09;1716942;82;21171;-84
2020/12/16 03:03:22;;;;;;;80.57;44.50;;;;;;;1.79;77.88;101345.02;1814316;77;23091;-87
2020/12/16 03:05:51;;;;;;;81.30;39.53;;;;;;;1.62;78.29;101337.84;1721730;80;21230;-88
2020/12/16 03:08:46;;;;;;;78.47;40.00;;;;;;;1.73;78.22;101344.97;1787319;77;23324;-86
2020/12/16 03:11:16;;;;;;;69.20;36.03;;;;;;;0.93;77.91;101210.75;1775362;80;21214;-84
2020/12/16 03:13:45;;;;;;;73.30;38.67;;;;;;;1.82;78.05;101348.27;1701588;82;21619;-83
2020/12/16 03:16:19;;;;;;;81.07;38.90;;;;;;;1.81;78.05;101341.35;1705468;83;21215;-86
2020/12/16 03:18:48;;;;;;;79.47;39.47;;;;;;;1.82;78.11;101340.88;1733765;82;21191;-85
2020/12/16 03:21:24;;;;;;;74.93;38.10;;;;;;;1.80;78.05;101335.72;1710440;82;21199;-85
2020/12/16 03:23:53;;;;;;;67.70;37.73;;;;;;;1.84;77.89;101338.48;1719318;82;21164;-84
2020/12/16 03:26:27;;;;;;;68.70;35.13;;;;;;;1.90;77.67;101345.11;1713696;82;21151;-85
2020/12/16 03:29:09;;;;;;;58.30;31.47;;;;;;;1.77;78.08;101333.77;1753173;79;23155;-85
2020/12/16 03:31:44;;;;;;;68.73;35.60;;;;;;;1.60;78.42;101341.05;1747199;82;21176;-86
2020/12/16 03:34:16;;;;;;;68.47;37.47;;;;;;;1.59;78.54;101335.90;1702619;83;21198;-86
2020/12/16 03:37:00;;;;;;;68.50;36.30;;;;;;;1.76;78.33;101336.88;1696892;79;23006;-84
2020/12/16 03:39:28;;;;;;;64.83;35.20;;;;;;;1.74;78.28;101343.55;1666201;85;21626;-85
2020/12/16 03:41:55;;;;;;;69.03;35.63;;;;;;;1.72;78.43;101344.14;1653355;85;21497;-84
2020/12/16 03:44:24;;;;;;;73.73;37.30;;;;;;;1.67;78.52;101342.29;1656880;84;21212;-86
2020/12/16 03:46:54;;;;;;;61.93;35.80;;;;;;;1.70;78.51;101345.20;1624481;87;21202;-85
2020/12/16 03:49:23;;;;;;;62.57;33.30;;;;;;;1.82;78.13;101346.13;1615912;87;21659;-84
2020/12/16 03:51:52;;;;;;;65.57;34.47;;;;;;;1.84;78.18;101354.75;1617189;87;21348;-84
2020/12/16 03:54:23;;;;;;;62.47;34.97;;;;;;;1.79;78.28;101350.27;1622133;87;21211;-89
2020/12/16 03:56:56;;;;;;;57.33;32.73;;;;;;;1.74;78.39;101357.18;1622356;87;21329;-86
2020/12/16 03:59:43;;;;;;;59.53;31.13;;;;;;;1.70;78.49;101364.43;1618328;88;21215;-87
2020/12/16 04:02:14;;;;;;;53.73;29.50;;;;;;;1.74;78.33;101365.06;1609956;87;21233;-87
2020/12/16 04:04:43;;;;;;;51.80;28.13;;;;;;;1.81;77.96;101353.19;1630900;87;21199;-87
2020/12/16 04:07:14;;;;;;;56.00;32.07;;;;;;;1.48;77.90;101301.98;1613725;87;21103;-86
2020/12/16 04:09:43;;;;;;;49.43;26.57;;;;;;;1.74;78.15;101365.89;1618747;87;21224;-86
2020/12/16 04:12:10;;;;;;;52.10;30.03;;;;;;;1.74;78.26;101365.06;1620839;87;21822;-86
2020/12/16 04:14:43;;;;;;;54.10;30.43;;;;;;;1.71;78.12;101370.07;1624623;87;21213;-89
2020/12/16 04:17:12;;;;;;;46.50;28.20;;;;;;;1.76;78.01;101367.11;1620560;87;21210;-88
2020/12/16 04:19:53;;;;;;;46.70;28.30;;;;;;;1.88;77.66;101360.16;1618704;87;21196;-86
2020/12/16 04:22:20;;;;;;;43.60;27.73;;;;;;;1.87;77.63;101365.89;1620839;87;21164;-88
2020/12/16 04:24:57;;;;;;;50.38;31.57;;;;;;;1.80;77.78;101366.42;1622093;87;21693;-83
2020/12/16 04:27:26;;;;;;;54.53;30.97;;;;;;;1.74;77.81;101363.75;1625569;81;21161;-85
2020/12/16 04:29:58;;;;;;;47.47;28.77;;;;;;;1.68;77.86;101364.18;1621645;87;21352;-85
2020/12/16 04:32:25;;;;;;;42.53;27.57;;;;;;;1.75;77.61;101368.91;1624020;87;21168;-88
2020/12/16 04:34:53;;;;;;;41.30;25.93;;;;;;;1.85;77.44;101371.73;1608484;87;21601;-87
2020/12/16 04:37:20;;;;;;;37.23;24.40;;;;;;;1.88;77.24;101374.12;1649095;85;21743;-87
2020/12/16 04:39:49;;;;;;;41.03;27.37;;;;;;;1.78;76.99;101370.47;1660282;86;21360;-87
2020/12/16 04:42:17;;;;;;;36.47;25.27;;;;;;;1.66;77.18;101373.96;1648353;86;21363;-88
2020/12/16 04:44:46;;;;;;;36.87;25.17;;;;;;;1.62;77.36;101373.33;1652898;86;21332;-88
2020/12/16 04:47:18;;;;;;;36.27;24.70;;;;;;;1.72;77.21;101371.73;1644384;86;21353;-87
2020/12/16 04:49:47;;;;;;;33.40;24.17;;;;;;;1.75;77.18;101376.80;1645709;86;21960;-89
2020/12/16 04:52:16;;;;;;;34.57;24.80;;;;;;;1.70;77.34;101372.31;1648242;86;21214;-88
2020/12/16 04:55:04;;;;;;;29.73;21.67;;;;;;;1.75;77.43;101379.42;1810846;77;23225;-88
2020/12/16 04:57:33;;;;;;;29.50;20.53;;;;;;;1.69;77.06;101380.30;1820178;78;21179;-87
2020/12/16 05:00:02;;;;;;;28.37;18.93;;;;;;;1.77;77.04;101386.34;1749230;80;21290;-86
2020/12/16 05:02:51;;;;;;;25.43;18.27;;;;;;;1.91;76.32;101384.93;1761375;81;21188;-88
2020/12/16 05:05:23;;;;;;;26.57;18.33;;;;;;;1.90;76.29;101389.80;1745084;80;21338;-86
2020/12/16 05:07:52;;;;;;;25.23;18.73;;;;;;;1.81;76.11;101389.13;1691162;83;21204;-90
2020/12/16 05:10:35;;;;;;;29.23;20.70;;;;;;;1.67;76.28;101390.91;1690339;83;21194;-87
2020/12/16 05:13:08;;;;;;;23.43;18.07;;;;;;;1.60;76.62;101395.38;1659794;85;21188;-85
2020/12/16 05:15:37;;;;;;;21.27;17.77;;;;;;;1.69;76.70;101388.19;1676176;85;21200;-87
2020/12/16 05:18:22;;;;;;;22.70;17.33;;;;;;;1.85;76.27;101382.25;1670847;85;21400;-89
2020/12/16 05:20:51;;;;;;;22.70;17.53;;;;;;;1.89;76.06;101382.88;1694297;83;21316;-89
2020/12/16 05:23:25;;;;;;;26.43;18.40;;;;;;;1.81;76.17;101382.55;1690783;83;21170;-89
2020/12/16 05:26:02;;;;;;;25.17;18.17;;;;;;;1.74;76.31;101386.92;1654768;85;21206;-88
2020/12/16 05:28:33;;;;;;;25.33;18.97;;;;;;;1.68;76.51;101385.20;1657923;85;21206;-88
2020/12/16 05:31:09;;;;;;;26.17;19.10;;;;;;;1.66;76.70;101383.16;1684300;83;21188;-85
2020/12/16 05:33:47;;;;;;;26.30;20.08;;;;;;;1.69;76.53;101385.08;1629390;86;21156;-91
2020/12/16 05:36:31;;;;;;;24.82;17.67;;;;;;;1.81;76.27;101383.41;1672923;83;21094;-88
2020/12/16 05:39:00;;;;;;;26.83;19.00;;;;;;;1.81;76.18;101372.03;1666202;85;21439;-89
2020/12/16 05:41:33;;;;;;;26.20;19.37;;;;;;;1.66;76.33;101368.22;1635901;85;21240;-89
2020/12/16 05:44:22;;;;;;;23.03;16.73;;;;;;;1.57;76.43;101374.59;1658616;85;21439;-88
2020/12/16 05:49:31;;;;;;;22.47;17.33;;;;;;;1.62;76.24;101374.64;1808550;78;22928;-90
2020/12/16 05:52:04;;;;;;;21.43;16.60;;;;;;;1.55;76.21;101373.37;1808462;77;21303;-92
2020/12/16 05:54:36;;;;;;;23.60;16.43;;;;;;;1.50;76.37;101376.77;1799459;79;21148;-90
2020/12/16 05:57:21;;;;;;;26.13;18.13;;;;;;;1.44;76.46;101373.25;1771982;80;21117;-86
2020/12/16 06:00:14;;;;;;;19.93;16.30;;;;;;;1.50;76.40;101372.34;1768311;79;21720;-91
2020/12/16 06:02:44;;;;;;;26.70;20.43;;;;;;;1.61;75.72;101368.17;1730934;82;21319;-88
2020/12/16 06:05:15;;;;;;;25.00;19.70;;;;;;;1.60;75.56;101373.05;1793204;78;21192;-88
2020/12/16 06:07:45;;;;;;;31.63;23.03;;;;;;;1.53;75.76;101373.47;1756148;80;21185;-87
2020/12/16 06:10:13;;;;;;;29.00;19.03;;;;;;;1.48;75.61;101381.30;1751016;80;21296;-93
2020/12/16 06:12:42;;;;;;;27.63;19.07;;;;;;;1.43;74.76;101383.38;1760764;80;21185;-90
2020/12/16 06:15:14;;;;;;;30.30;20.60;;;;;;;1.52;75.10;101387.53;1761431;80;21184;-91
2020/12/16 06:17:48;;;;;;;32.83;21.10;;;;;;;1.64;74.73;101378.45;1742213;80;21307;-88
2020/12/16 06:20:20;;;;;;;27.37;19.27;;;;;;;1.67;74.73;101385.66;1758275;80;21326;-89
2020/12/16 06:23:05;;;;;;;30.93;22.40;;;;;;;1.62;74.56;101390.41;1734861;80;21161;-89
2020/12/16 06:25:36;;;;;;;30.77;20.37;;;;;;;1.54;74.62;101389.62;1776991;79;21345;-93
2020/12/16 06:28:02;;;;;;;23.33;17.23;;;;;;;1.58;74.76;101386.77;1779435;79;21175;-94
2020/12/16 06:30:30;;;;;;;27.43;18.93;;;;;;;1.72;74.40;101388.82;1743334;81;21199;-92
2020/12/16 06:33:24;;;;;;;;;;;;;;;;;;;;;
2020/12/16 06:35:47;;;;;;;27.13;19.13;;;;;;;1.66;74.03;101393.19;1735028;79;21170;-93
2020/12/16 06:38:23;;;;;;;30.43;21.57;;;;;;;1.60;74.07;101396.24;1753035;78;21205;-92
2020/12/16 06:40:53;;;;;;;28.27;20.53;;;;;;;1.59;74.40;101397.17;1750752;80;21212;-91
2020/12/16 06:43:35;;;;;;;25.70;20.53;;;;;;;1.65;74.00;101400.69;1719152;82;21204;-94
2020/12/16 06:46:05;;;;;;;28.20;17.70;;;;;;;1.77;73.39;101400.80;1737110;81;21373;-93
2020/12/16 06:48:37;;;;;;;23.97;18.67;;;;;;;1.75;73.24;101396.95;1722130;81;21326;-91
2020/12/16 06:54:17;;;;;;;24.67;18.97;;;;;;;1.59;72.81;101411.62;1711632;82;21192;-90
2020/12/16 06:56:47;;;;;;;25.90;17.90;;;;;;;1.63;73.19;101414.89;1681705;83;21650;-89
2020/12/16 06:59:56;;;;;;;26.27;19.43;;;;;;;1.82;72.48;101415.31;1698055;82;21833;-93
2020/12/16 07:02:35;;;;;;;23.73;18.33;;;;;;;1.85;72.37;101419.06;1706041;82;21192;-90
2020/12/16 07:05:13;;;;;;;27.33;19.70;;;;;;;1.75;72.24;101419.30;1707114;82;21197;-90
2020/12/16 07:07:58;;;;;;;24.30;19.57;;;;;;;1.68;72.26;101421.52;1699078;82;21711;-90
2020/12/16 07:10:47;;;;;;;23.13;18.40;;;;;;;1.71;72.64;101419.14;1689118;82;21113;-96
2020/12/16 07:13:35;;;;;;;21.17;18.13;;;;;;;1.78;71.89;101422.22;1695464;80;21138;-93
2020/12/16 07:16:12;;;;;;;24.73;19.07;;;;;;;1.89;71.30;101425.78;1716231;82;21101;-87
2020/12/16 07:18:47;;;;;;;21.30;18.50;;;;;;;1.90;70.95;101418.73;1698378;82;21133;-91
2020/12/16 07:21:28;;;;;;;21.73;19.30;;;;;;;1.84;70.86;101408.16;1715835;82;21221;-91
2020/12/16 07:24:23;;;;;;;23.07;18.27;;;;;;;1.77;71.16;101413.95;1703183;82;21170;-90
2020/12/16 07:26:55;;;;;;;21.20;16.10;;;;;;;1.73;71.47;101412.86;1699131;82;21149;-91
2020/12/16 07:40:45;;;;;;;23.30;20.80;;;;;;;1.56;70.57;101402.63;1854718;76;28121;-93
2020/12/16 07:44:01;;;;;;;23.63;18.67;;;;;;;1.65;70.44;101411.69;1798312;77;21096;-92
2020/12/16 07:47:04;;;;;;;18.53;16.33;;;;;;;1.81;70.03;101416.73;1725867;80;21387;-93
2020/12/16 07:50:05;;;;;;;18.23;15.77;;;;;;;1.90;69.57;101417.41;1755263;80;21140;-94
2020/12/16 07:53:17;;;;;;;20.03;17.40;;;;;;;1.93;69.45;101411.95;1780575;78;21167;-93
2020/12/16 07:56:08;;;;;;;20.57;17.90;;;;;;;1.81;69.51;101415.41;1791577;77;21396;-92
2020/12/16 07:58:59;;;;;;;;;;;;;;;1.67;69.67;101413.73;1783030;79;21128;-92
2020/12/16 08:02:15;;;;;;;20.87;15.37;;;;;;;1.78;69.11;101423.53;1800366;79;22955;-94
2020/12/16 08:05:56;;;;;;;19.63;16.43;;;;;;;1.64;69.46;101426.63;1700419;80;21151;-94
2020/12/16 08:09:16;;;;;;;20.10;16.37;;;;;;;1.58;69.87;101419.13;1630488;85;21252;-94
2020/12/16 08:12:17;;;;;;;22.00;16.93;;;;;;;1.61;69.80;101412.36;1681879;83;21228;-93
2020/12/16 08:15:31;;;;;;;18.73;15.43;;;;;;;1.58;69.45;101424.39;1659936;84;21149;-95
2020/12/16 08:18:47;;;;;;;22.70;17.70;;;;;;;1.53;69.71;101418.62;1656602;85;21192;-93
2020/12/16 08:21:36;;;;;;;21.20;17.57;;;;;;;1.48;69.56;101408.88;1671910;83;21346;-92
2020/12/16 08:24:32;;;;;;;23.57;18.73;;;;;;;1.49;69.49;101406.64;1797626;78;22800;-93
2020/12/16 08:27:06;;;;;;;24.97;17.43;;;;;;;1.44;69.41;101413.50;1746312;80;21177;-94
2020/12/16 08:29:51;;;;;;;20.57;17.53;;;;;;;1.49;69.63;101423.72;1800005;78;21163;-92
2020/12/16 08:32:38;;;;;;;22.60;17.63;;;;;;;1.51;69.66;101424.45;1792534;77;21147;-93
2020/12/16 08:35:56;;;;;;;18.97;16.30;;;;;;;1.56;69.17;101415.77;1771197;79;21060;-91
2020/12/16 08:39:18;;;;;;;18.83;16.13;;;;;;;1.57;68.88;101414.00;1718711;81;21223;-92
2020/12/16 08:42:53;;;;;;;19.33;16.37;;;;;;;1.61;68.87;101411.53;1740344;81;21230;-93
2020/12/16 08:46:26;;;;;;;23.50;17.47;;;;;;;1.78;69.05;101415.16;1634507;84;21270;-94
2020/12/16 08:49:49;;;;;;;24.87;18.10;;;;;;;1.90;68.78;101408.21;1633569;85;21220;-95
2020/12/16 08:52:59;;;;;;;21.53;17.57;;;;;;;1.83;68.31;101411.75;1629279;87;21207;-90
2020/12/16 08:55:38;;;;;;;20.37;18.03;;;;;;;1.73;68.61;101406.73;1596552;89;21200;-91
2020/12/16 08:59:20;;;;;;;23.87;19.10;;;;;;;1.80;68.51;101389.60;1807696;78;23121;-93
2020/12/16 09:02:33;;;;;;;27.13;19.80;;;;;;;1.73;68.53;101393.14;1752690;78;21183;-93
2020/12/16 09:05:31;;;;;;;23.73;19.27;;;;;;;1.69;68.80;101397.38;1764033;79;21088;-96
2020/12/16 09:08:15;;;;;;;26.50;19.53;;;;;;;1.68;69.04;101393.92;1768006;78;21446;-95
2020/12/16 09:11:07;;;;;;;21.90;19.00;;;;;;;1.67;68.77;101394.86;1764336;80;21209;-92
2020/12/16 09:14:02;;;;;;;20.10;16.63;;;;;;;1.68;68.97;101387.83;1748831;81;21362;-92
2020/12/16 09:16:45;;;;;;;21.83;18.33;;;;;;;1.78;68.96;101402.50;1724021;82;21199;-92
2020/12/16 09:19:38;;;;;;;26.83;19.40;;;;;;;1.90;68.86;101393.75;1684457;83;21315;-93
2020/12/16 09:22:12;;;;;;;20.57;16.90;;;;;;;1.86;68.96;101398.86;1723938;81;21148;-92
2020/12/16 09:24:41;;;;;;;27.10;19.47;;;;;;;1.84;69.08;101395.50;1742337;80;21252;-93
2020/12/16 09:27:57;;;;;;;22.43;19.47;;;;;;;1.83;69.02;101406.50;1724993;80;21617;-94
2020/12/16 09:30:40;;;;;;;24.53;20.00;;;;;;;1.88;69.14;101406.16;1739043;80;21183;-93
2020/12/16 09:33:13;;;;;;;23.10;19.80;;;;;;;1.91;69.40;101412.54;1717902;81;21199;-93
2020/12/16 09:36:07;;;;;;;24.73;20.03;;;;;;;1.95;69.31;101404.31;1720166;80;21103;-93
2020/12/16 09:39:18;;;;;;;23.67;18.77;;;;;;;2.00;69.29;101399.20;1711709;81;21171;-93
2020/12/16 09:42:23;;;;;;;21.20;16.63;;;;;;;1.97;68.95;101404.22;1707957;80;21198;-93
2020/12/16 09:45:18;;;;;;;21.70;16.43;;;;;;;1.98;68.81;101395.84;1703296;82;21170;-94
2020/12/16 09:48:10;;;;;;;24.70;17.53;;;;;;;1.90;69.20;101385.86;1726313;80;21177;-95
2020/12/16 09:51:21;;;;;;;21.40;17.60;;;;;;;1.87;69.65;101383.47;1700977;82;21267;-94
2020/12/16 09:54:33;;;;;;;22.60;17.43;;;;;;;1.87;69.94;101383.47;1704541;79;21149;-94
2020/12/16 09:57:40;;;;;;;25.60;17.20;;;;;;;1.94;69.84;101375.49;1738524;79;21232;-95
2020/12/16 10:00:53;;;;;;;17.57;15.43;;;;;;;1.88;69.83;101371.98;1709840;80;21445;-92
2020/12/16 10:04:06;;;;;;;21.23;17.13;;;;;;;2.00;69.64;101368.97;1728908;80;21278;-94
2020/12/16 10:07:06;;;;;;;24.07;17.30;;;;;;;1.97;69.61;101363.45;1690971;81;21093;-94
2020/12/16 10:10:23;;;;;;;31.07;19.07;;;;;;;1.89;69.97;101356.59;1703406;79;21109;-94
2020/12/16 10:13:01;;;;;;;25.10;17.67;;;;;;;1.87;70.24;101357.17;1724142;80;21163;-91
2020/12/16 10:16:15;;;;;;;22.33;18.57;;;;;;;1.89;70.30;101359.22;1717497;81;21189;-95
2020/12/16 10:19:05;;;;;;;24.17;19.57;;;;;;;2.01;70.04;101357.03;1703640;82;21166;-96
2020/12/16 10:22:21;;;;;;;25.77;19.13;;;;;;;2.00;69.95;101354.50;1694314;79;21292;-94
2020/12/16 10:25:05;;;;;;;23.87;19.13;;;;;;;1.87;70.47;101354.55;1649381;83;21214;-94
2020/12/16 10:28:25;;;;;;;24.73;17.97;;;;;;;1.84;70.74;101359.52;1665992;82;21185;-94
2020/12/16 10:31:10;;;;;;;24.53;18.13;;;;;;;1.85;70.79;101344.12;1638646;86;21177;-94
2020/12/16 10:34:19;;;;;;;21.90;18.50;;;;;;;1.98;70.49;101340.62;1632904;86;21180;-91
2020/12/16 10:36:51;;;;;;;23.43;18.90;;;;;;;1.89;70.76;101346.07;1654547;84;21136;-90
2020/12/16 10:39:20;;;;;;;21.77;18.73;;;;;;;1.85;70.95;101348.55;1656029;85;21204;-90
2020/12/16 10:42:09;;;;;;;;;;;;;;;;;;;;;
2020/12/16 10:45:05;;;;;;;23.43;16.63;;;;;;;1.91;71.19;101338.91;1841096;77;23570;-90
2020/12/16 10:47:33;;;;;;;25.43;20.77;;;;;;;1.95;71.12;101341.69;1801571;78;21184;-93
2020/12/16 10:50:03;;;;;;;33.43;20.63;;;;;;;1.87;71.44;101346.17;1796835;78;21175;-87
2020/12/16 10:52:31;;;;;;;25.90;19.90;;;;;;;1.85;71.75;101344.61;1806251;77;21182;-91
2020/12/16 10:54:59;;;;;;;26.23;17.70;;;;;;;1.89;71.65;101343.44;1773338;78;21334;-91
2020/12/16 10:57:27;;;;;;;23.13;18.83;;;;;;;2.00;71.28;101340.91;1785688;78;21175;-92
2020/12/16 10:59:56;;;;;;;24.50;21.23;;;;;;;1.98;71.21;101335.36;1815528;77;21191;-87
2020/12/16 11:02:26;;;;;;;22.17;19.27;;;;;;;1.91;71.50;101333.66;1811398;77;21139;-88
2020/12/16 11:05:09;;;;;;;28.90;18.90;;;;;;;1.86;71.69;101334.45;1804823;77;21189;-91
2020/12/16 11:07:40;;;;;;;25.90;18.00;;;;;;;1.82;71.82;101335.13;1739844;79;21123;-90
2020/12/16 11:10:12;;;;;;;24.23;19.63;;;;;;;1.88;71.88;101325.97;1741897;81;21322;-91
2020/12/16 11:15:39;;;;;;;23.17;17.60;;;;;;;1.84;71.88;101324.52;1847074;74;25426;-91
2020/12/16 11:18:10;;;;;;;26.97;18.57;;;;;;;1.69;71.85;101319.37;1854083;75;21370;-91
2020/12/16 11:20:38;;;;;;;25.23;17.33;;;;;;;1.60;72.23;101325.29;1859763;75;21262;-92
2020/12/16 11:23:09;;;;;;;26.90;19.67;;;;;;;1.68;72.12;101328.22;1859490;75;21572;-89
2020/12/16 11:25:37;;;;;;;20.37;16.27;;;;;;;1.77;71.82;101325.88;1867937;75;21229;-92
2020/12/16 11:28:06;;;;;;;23.53;18.07;;;;;;;1.72;71.82;101325.73;1855344;75;21136;-92
2020/12/16 11:30:34;;;;;;;21.37;17.27;;;;;;;1.66;71.89;101322.70;1876275;75;21156;-86
2020/12/16 11:33:01;;;;;;;21.47;15.43;;;;;;;1.64;72.02;101318.00;1865338;75;21358;-90
2020/12/16 11:35:38;;;;;;;21.70;16.57;;;;;;;1.65;71.92;101315.27;1850015;75;21011;-90
2020/12/16 11:38:06;;;;;;;17.10;14.83;;;;;;;1.82;71.51;101314.09;1797499;78;21207;-91
2020/12/16 11:40:37;;;;;;;14.73;13.13;;;;;;;1.86;71.17;101309.47;1799232;78;21123;-87
2020/12/16 11:43:23;;;;;;;15.10;13.17;;;;;;;1.88;70.91;101311.52;1766215;79;22934;-90
2020/12/16 11:45:57;;;;;;;18.63;15.63;;;;;;;1.79;71.05;101313.47;1779936;80;21172;-89
2020/12/16 11:48:25;;;;;;;17.43;13.97;;;;;;;1.71;71.17;101320.12;1770973;80;21232;-92
2020/12/16 11:50:52;;;;;;;16.33;14.13;;;;;;;1.70;71.23;101314.48;1779535;80;21216;-87
2020/12/16 11:53:19;;;;;;;18.67;15.27;;;;;;;1.84;71.03;101317.45;1776909;80;21188;-93
2020/12/16 11:55:51;;;;;;;15.27;13.63;;;;;;;1.87;70.75;101316.42;1781112;80;21167;-93
2020/12/16 11:58:19;;;;;;;16.93;12.60;;;;;;;1.79;71.01;101318.73;1697050;83;21274;-92
2020/12/16 12:00:47;;;;;;;17.37;13.33;;;;;;;1.72;71.42;101312.59;1725879;81;21623;-90
2020/12/16 12:03:14;;;;;;;17.03;13.43;;;;;;;1.64;71.84;101318.87;1712017;83;21282;-88
2020/12/16 12:05:43;;;;;;;17.40;12.70;;;;;;;1.63;71.92;101309.29;1712040;82;21107;-92
2020/12/16 12:08:15;;;;;;;18.57;14.43;;;;;;;1.70;71.80;101313.17;1726157;82;21187;-94
2020/12/16 12:10:42;;;;;;;18.07;14.70;;;;;;;1.68;71.90;101318.19;1715264;82;21211;-92
2020/12/16 12:13:11;;;;;;;19.07;15.90;;;;;;;1.59;72.26;101318.34;1715585;83;21314;-91
2020/12/16 12:15:45;;;;;;;15.47;12.90;;;;;;;1.47;72.77;101325.28;1731348;82;21187;-91
2020/12/16 12:18:16;;;;;;;19.43;13.87;;;;;;;1.51;72.64;101321.98;1726227;82;21207;-90
2020/12/16 12:20:44;;;;;;;16.37;13.40;;;;;;;1.61;72.34;101317.75;1711193;82;21249;-92
2020/12/16 12:23:13;;;;;;;17.20;13.80;;;;;;;1.58;72.46;101311.38;1663866;85;21171;-93
2020/12/16 12:25:43;;;;;;;20.83;16.40;;;;;;;1.51;72.66;101312.78;1648680;84;21166;-91
2020/12/16 12:28:16;;;;;;;20.03;14.33;;;;;;;1.42;73.00;101308.98;1682972;84;21172;-87
2020/12/16 12:30:45;;;;;;;17.23;15.37;;;;;;;1.48;72.97;101311.67;1656231;85;21365;-86